createdAt,value
2023-01-30T00:57:03.152Z,6.65
2023-01-30T01:03:05.054Z,6.75
2023-01-30T01:08:25.952Z,7.00
2023-01-30T01:14:01.778Z,8.02
2023-01-30T01:19:10.188Z,8.60
2023-01-30T01:30:14.332Z,7.63
2023-01-30T01:35:41.867Z,8.18
2023-01-30T01:41:13.277Z,8.32
2023-01-30T01:46:31.807Z,7.70
2023-01-30T01:52:03.826Z,8.75
2023-01-30T01:57:42.382Z,7.97
2023-01-30T02:03:22.931Z,7.72
2023-01-30T02:08:47.708Z,8.38
2023-01-30T02:19:53.997Z,8.23
2023-01-30T02:25:39.197Z,8.10
2023-01-30T02:31:12.303Z,8.25
2023-01-30T02:36:26.124Z,6.88
2023-01-30T02:41:38.621Z,9.20
2023-01-30T03:33:49.286Z,6.32
2023-01-30T03:39:58.465Z,10.50
2023-01-30T04:25:06.808Z,6.55
2023-01-30T04:36:25.032Z,6.82
2023-01-30T04:41:53.692Z,6.93
2023-01-30T04:47:40.169Z,6.28
2023-01-30T04:58:37.606Z,7.07
2023-01-30T05:10:39.130Z,5.45
2023-01-30T05:15:58.905Z,7.00
2023-01-30T05:21:43.547Z,6.20
2023-01-30T05:27:07.399Z,7.68
2023-01-30T05:32:30.878Z,8.30
2023-01-30T05:37:49.799Z,7.18
2023-01-30T05:44:25.197Z,8.13
2023-01-30T05:56:05.193Z,7.93
2023-01-30T06:08:12.052Z,6.45
2023-01-30T06:13:59.907Z,7.55
2023-01-30T06:19:27.005Z,6.88
2023-01-30T08:46:00.283Z,7.93
2023-01-30T08:51:06.178Z,7.95
2023-01-30T08:56:17.129Z,7.15
2023-01-30T09:01:47.091Z,7.30
2023-01-30T09:07:23.302Z,6.40
2023-01-30T09:12:50.519Z,5.88
2023-01-30T09:18:26.310Z,7.65
2023-01-30T09:23:42.025Z,5.65
2023-01-30T09:34:19.835Z,5.05
2023-01-30T09:39:25.963Z,5.65
2023-01-30T09:45:00.445Z,7.95
2023-01-30T09:50:27.416Z,6.38
2023-01-30T09:55:42.365Z,6.25
2023-01-30T10:00:52.055Z,5.60
2023-01-30T10:06:07.023Z,6.38
2023-01-30T10:16:32.747Z,5.55
2023-01-30T10:21:53.192Z,5.32
2023-01-30T10:27:16.031Z,4.95
2023-01-30T10:32:35.413Z,5.20
2023-01-30T10:37:58.112Z,6.47
2023-01-30T10:43:29.125Z,4.65
2023-01-30T10:48:58.628Z,4.05
2023-01-30T10:54:24.959Z,3.95
2023-01-30T10:59:48.707Z,5.97
2023-01-30T11:05:14.849Z,4.82
2023-01-30T11:10:35.059Z,4.45
2023-01-30T11:15:56.886Z,4.00
2023-01-30T11:21:15.330Z,4.38
2023-01-30T11:26:45.125Z,4.40
2023-01-30T11:32:04.424Z,4.68
2023-01-30T11:37:30.752Z,3.85
2023-01-30T11:42:45.839Z,4.13
2023-01-30T11:53:35.744Z,4.15
2023-01-30T11:58:50.952Z,5.70
2023-01-30T12:09:45.351Z,4.20
2023-01-30T12:15:15.359Z,5.00
2023-01-30T12:26:31.229Z,4.70
2023-01-30T12:44:26.766Z,6.72
2023-01-30T17:39:14.862Z,14.10
2023-01-30T17:44:29.544Z,9.52
2023-01-30T17:49:57.986Z,11.98
2023-01-30T17:55:22.226Z,12.35
2023-01-30T18:00:38.200Z,12.15
2023-01-30T18:05:46.586Z,13.20
2023-01-30T18:11:06.235Z,14.43
2023-01-30T18:16:22.851Z,14.73
2023-01-30T18:28:08.041Z,14.30
2023-01-30T18:33:22.147Z,12.27
2023-01-30T18:38:31.723Z,13.05
2023-01-30T18:44:13.514Z,14.55
2023-01-30T18:56:35.809Z,14.65
2023-01-30T19:01:58.368Z,15.15
2023-01-30T19:08:04.488Z,16.02
2023-01-30T19:13:22.925Z,15.70
2023-01-30T19:18:34.306Z,15.68
2023-01-30T19:23:40.486Z,16.83
2023-01-30T19:28:50.460Z,17.13
2023-01-30T19:34:03.645Z,15.73
2023-01-30T19:39:13.254Z,17.05
2023-01-30T19:44:19.241Z,18.88
2023-01-30T19:49:27.951Z,17.38
2023-01-30T19:54:35.422Z,20.42
2023-01-30T19:59:42.198Z,34.75
2023-01-30T20:04:52.780Z,30.38
2023-01-30T20:09:59.528Z,19.13
2023-01-30T20:15:06.790Z,21.30
2023-01-30T20:20:18.183Z,23.50
2023-01-30T20:25:24.949Z,22.70
2023-01-30T20:30:31.152Z,27.85
2023-01-30T20:35:39.832Z,26.15
2023-01-30T20:40:46.978Z,25.40
2023-01-30T20:45:53.208Z,21.10
2023-01-30T20:51:55.801Z,21.60
2023-01-30T21:03:47.721Z,19.30
2023-01-30T21:08:58.872Z,20.48
2023-01-30T21:14:05.547Z,19.90
2023-01-30T21:19:16.821Z,22.13
2023-01-30T21:24:29.401Z,21.55
2023-01-30T21:29:40.854Z,21.98
2023-01-30T21:34:50.047Z,21.63
2023-01-30T21:40:11.247Z,19.50
2023-01-30T21:45:18.874Z,18.80
2023-01-30T21:50:25.468Z,20.02
2023-01-30T21:55:34.254Z,19.92
2023-01-30T22:05:49.084Z,16.20
2023-01-30T22:11:08.106Z,17.52
2023-01-30T22:16:16.183Z,17.80
2023-01-30T22:21:36.421Z,17.13
2023-01-30T22:26:48.147Z,18.08
2023-01-30T22:31:58.717Z,16.25
2023-01-30T22:37:10.400Z,16.83
2023-01-30T22:42:27.715Z,16.48
2023-01-30T22:48:22.066Z,17.38
